METAR Data
IDs: Format: Raw Decoded Include TAF

Data at: 1817 UTC 19 May 2019

Region: TOP
KATL 191752Z 19010G16KT 10SM FEW055 SCT250 29/15 A3004 RMK AO2 SLP162 T02940150 10300 20206 58005

KBOS 191754Z 19011KT 10SM FEW026 SCT055 BKN100 BKN220 18/12 A3003 RMK AO2 RAE22 SLP167 P0002 60022 T01780122 10183 20150 58020

KBWI 191754Z 13010KT 10SM FEW016 FEW250 29/22 A2997 RMK AO2 SLP148 T02940222 10300 20206 58013

KCLE 191751Z 22017G22KT 10SM FEW070 BKN120 29/14 A2981 RMK AO2 PK WND 23030/1708 SLP088 T02890139 10300 20233 56015

KCLT 191752Z 24008KT 10SM FEW048 FEW250 30/18 A3006 RMK AO2 SLP171 CB DSNT N T03000178 10300 20228 56008

KCVG 191752Z 20014G20KT 10SM BKN085 OVC110 23/16 A2984 RMK AO2 PK WND 20029/1717 RAB20E48 SLP094 P0000 60000 T02330156 10256 20222 56008 $

KDCA 191752Z 17011KT 10SM SCT045 BKN250 29/21 A2998 RMK AO2 SLP150 T02890211 10289 20200 58016

KDEN 191753Z 08010KT 10SM FEW025 SCT050 BKN150 BKN200 11/02 A2996 RMK AO2 SLP120 T01110017 10111 20028 56012

KDFW 191753Z 01010KT 10SM FEW300 26/13 A2991 RMK AO2 SLP121 T02610133 10261 20189 50009 $

KDTW 191753Z 19021G30KT 9SM BKN035 BKN085 27/17 A2971 RMK AO2 PK WND 20035/1738 RAB23E28 SLP057 P0000 60000 T02670167 10267 20178 58015 $

KEWR 191751Z 09008KT 10SM FEW035 SCT130 SCT250 24/16 A3001 RMK AO2 SLP161 60000 T02390161 10244 20167 58016

KFLL 191753Z 09013KT 10SM SCT034 29/21 A3002 RMK AO2 SLP164 T02940211 10300 20272 58001

KIAD 191752Z 19011KT 10SM FEW028 FEW250 31/21 A2996 RMK AO2 SLP143 T03060211 10306 20194 58020

KIAH 191753Z 22006KT 8SM FEW034 SCT046 BKN055 32/24 A2988 RMK AO2 SLP117 T03170244 10328 20261 50004

KJFK 191751Z 16020G24KT 10SM FEW013 FEW035 SCT250 20/17 A3004 RMK AO2 PK WND 15026/1729 SLP172 60014 T02000167 10200 20150 58015

KLAS 191756Z 21016G33KT 10SM FEW100 FEW120 BKN160 BKN200 19/02 A2964 RMK AO2 PK WND 20033/1741 SLP018 T01940022 10194 20150 58006 $

KLAX 191803Z 11006KT 10SM SCT011 BKN016 OVC021 14/11 A2991 RMK AO2 T01440106 $

KLGA 191751Z 17014G21KT 10SM FEW024 SCT090 SCT230 22/16 A3002 RMK AO2 SLP165 60000 T02220161 10228 20172 58013

KMCO 191753Z VRB03KT 10SM SCT055 31/17 A3004 RMK AO2 SLP171 T03060167 10311 20228 58006

KMDW 191753Z 23016G27KT 10SM FEW029 SCT037 BKN045 23/16 A2958 RMK AO2 PK WND 23032/1725 SLP014 60000 T02280161 10233 20200 58012

KMEM 191754Z 22015G24KT 10SM FEW031 BKN130 27/21 A2988 RMK AO2 SLP113 T02720206 10272 20194 50005

KMIA 191753Z 07011KT 10SM SCT039 SCT200 31/21 A3002 RMK AO2 SLP165 T03110206 10317 20272 58002

KMSP 191802Z 02017G29KT 6SM -RA BR SCT010 BKN015 OVC022 04/03 A2974 RMK AO2 PK WND 03029/1755 P0001 T00440028

KORD 191751Z 22011G24KT 10SM BKN033 BKN050 BKN100 23/16 A2957 RMK AO2 PK WND 21028/1654 SLP012 60000 T02280161 10228 20189 58011 $

KPDX 191753Z 33003KT 10SM FEW010 SCT030 BKN060 15/08 A2976 RMK AO2 SLP075 60000 T01500078 10156 20106 58002

KPHL 191754Z 19012KT 10SM FEW032 SCT250 29/20 A2999 RMK AO2 SLP156 T02890200 10289 20178 58017

KPHX 191751Z 20009KT 10SM BKN140 BKN190 26/M01 A2978 RMK AO2 SLP068 T02561006 10256 20200 58005

KPIT 191751Z 23017G23KT 10SM FEW048 BKN250 29/16 A2990 RMK AO2 SLP122 T02890156 10289 20200 58015

KSAN 191751Z 19005KT 7SM FEW018 SCT023 OVC040 16/12 A2994 RMK AO2 RAE47 SLP137 P0009 60009 T01560122 10172 20150 53011

KSEA 191753Z 27004KT 10SM FEW010 BKN090 OVC120 15/10 A2975 RMK AO2 SLP078 T01500100 10161 20117 51004

KSFO 191756Z 27013G17KT 10SM FEW026 BKN037 BKN070 15/07 A2978 RMK AO2 SLP084 60024 T01500072 10156 20100 51012

KSLC 191754Z 18017G24KT 10SM FEW070 BKN090 BKN120 16/01 A2960 RMK AO2 WSHFT 1722 SLP989 60000 T01610006 10172 20106 58020 VISNO NW RNWY

KSTL 191751Z 26023G31KT 10SM SCT036 SCT055 25/14 A2973 RMK AO2 PK WND 26031/1750 SLP058 60004 T02500139 10250 20189 53005

KTPA 191753Z 25006KT 10SM SCT040 29/21 A3004 RMK AO2 SLP172 T02890211 10294 20228 58003 $